createdAt,value
2022-09-12T00:20:30.227Z,99.90
2022-09-12T00:22:57.264Z,99.90
2022-09-12T00:25:23.256Z,99.90
2022-09-12T00:27:50.032Z,99.90
2022-09-12T00:30:16.064Z,99.90
2022-09-12T00:32:42.068Z,99.90
2022-09-12T00:35:09.018Z,99.90
2022-09-12T00:37:35.052Z,99.90
2022-09-12T00:40:01.142Z,99.90
2022-09-12T00:42:27.923Z,99.90
2022-09-12T00:44:53.977Z,99.90
2022-09-12T00:47:20.002Z,99.90
2022-09-12T00:49:46.893Z,99.90
2022-09-12T00:52:13.098Z,99.90
2022-09-12T00:54:39.104Z,99.90
2022-09-12T00:57:05.133Z,99.90
2022-09-12T00:59:32.241Z,99.90
2022-09-12T01:01:58.404Z,99.90
2022-09-12T01:04:25.435Z,99.90
2022-09-12T01:06:51.507Z,99.90
2022-09-12T01:09:17.580Z,99.90
2022-09-12T01:11:43.589Z,99.90
2022-09-12T01:14:09.689Z,99.90
2022-09-12T01:16:36.542Z,99.90
2022-09-12T01:19:03.165Z,99.90
2022-09-12T01:21:29.234Z,99.90
2022-09-12T01:23:55.319Z,99.90
2022-09-12T01:26:22.257Z,99.90
2022-09-12T01:28:49.158Z,99.90
2022-09-12T01:31:16.049Z,99.90
2022-09-12T01:33:42.752Z,99.90
2022-09-12T01:36:08.859Z,99.90
2022-09-12T01:38:35.615Z,99.90
2022-09-12T01:41:01.629Z,99.90
2022-09-12T01:43:27.696Z,99.90
2022-09-12T01:45:54.715Z,99.90
2022-09-12T01:48:21.617Z,99.90
2022-09-12T01:50:48.520Z,99.90
2022-09-12T01:53:15.325Z,99.90
2022-09-12T01:55:41.413Z,99.90
2022-09-12T01:58:07.457Z,99.90
2022-09-12T02:00:35.155Z,99.90
2022-09-12T02:03:01.707Z,99.90
2022-09-12T02:05:28.104Z,99.90
2022-09-12T02:07:55.010Z,99.90
2022-09-12T02:10:21.037Z,99.90
2022-09-12T02:12:47.095Z,99.90
2022-09-12T02:15:14.087Z,99.90
2022-09-12T02:17:42.246Z,99.90
2022-09-12T02:20:08.306Z,99.90
2022-09-12T02:22:34.391Z,99.90
2022-09-12T02:25:00.397Z,99.90
2022-09-12T02:27:27.360Z,99.90
2022-09-12T02:29:53.419Z,99.90
2022-09-12T02:32:19.441Z,99.90
2022-09-12T02:34:46.237Z,99.90
2022-09-12T02:37:12.316Z,99.90
2022-09-12T02:39:41.095Z,99.90
2022-09-12T02:42:10.476Z,99.90
2022-09-12T02:44:37.573Z,99.90
2022-09-12T02:47:03.711Z,99.90
2022-09-12T02:49:29.914Z,99.90
2022-09-12T02:51:56.803Z,99.90
2022-09-12T02:54:23.010Z,99.90
2022-09-12T02:56:49.012Z,99.90
2022-09-12T02:59:17.843Z,99.90
2022-09-12T03:01:44.071Z,99.90
2022-09-12T03:04:10.170Z,99.90
2022-09-12T03:06:37.356Z,99.90
2022-09-12T03:09:03.480Z,99.90
2022-09-12T03:14:10.817Z,99.90
2022-09-12T05:23:59.736Z,99.90
2022-09-12T05:26:26.239Z,99.90
2022-09-12T05:28:52.221Z,99.90
2022-09-12T05:31:18.168Z,99.90
2022-09-12T05:33:44.876Z,99.90
2022-09-12T05:36:10.830Z,99.90
2022-09-12T05:38:36.797Z,99.90
2022-09-12T05:41:02.740Z,99.90
2022-09-12T05:43:28.683Z,99.90
2022-09-12T05:45:54.639Z,99.90
2022-09-12T05:48:20.611Z,99.90
2022-09-12T05:50:47.261Z,99.90
2022-09-12T05:53:13.269Z,99.90
2022-09-12T05:55:39.227Z,99.90
2022-09-12T05:58:06.043Z,99.90
2022-09-12T06:00:33.612Z,99.90
2022-09-12T06:02:59.697Z,99.90
2022-09-12T06:08:10.685Z,99.90
2022-09-12T06:10:36.698Z,99.90
2022-09-12T06:13:02.624Z,99.90
2022-09-12T06:15:28.629Z,99.90
2022-09-12T06:17:54.570Z,99.90
2022-09-12T06:20:20.559Z,99.90
2022-09-12T06:22:47.396Z,99.90
2022-09-12T06:25:13.334Z,99.90
2022-09-12T06:27:39.292Z,99.90
2022-09-12T06:30:05.977Z,99.90
2022-09-12T06:32:31.942Z,99.90
2022-09-12T06:34:57.875Z,99.90
2022-09-12T06:37:24.748Z,99.90
2022-09-12T06:39:50.723Z,99.90
2022-09-12T06:42:16.711Z,99.90
2022-09-12T06:44:42.634Z,99.90
2022-09-12T06:47:08.584Z,99.90
2022-09-12T06:49:34.590Z,99.90
2022-09-12T06:52:00.523Z,99.90
2022-09-12T06:54:26.825Z,99.90
2022-09-12T06:56:52.800Z,99.90
2022-09-12T06:59:18.778Z,99.90
2022-09-12T07:01:45.673Z,99.90
2022-09-12T07:04:11.720Z,99.90
2022-09-12T07:06:37.912Z,99.90
2022-09-12T07:09:03.897Z,99.90
2022-09-12T07:11:30.549Z,99.90
2022-09-12T07:13:56.525Z,99.90
2022-09-12T07:16:22.521Z,99.90
2022-09-12T07:18:48.527Z,99.90
2022-09-12T07:21:14.484Z,99.90
2022-09-12T07:23:40.442Z,99.90
2022-09-12T07:26:06.453Z,99.90
2022-09-12T07:28:33.114Z,99.90
2022-09-12T07:30:59.487Z,99.90
2022-09-12T07:33:27.104Z,99.90
2022-09-12T07:35:53.375Z,99.90
2022-09-12T07:38:19.695Z,99.90
2022-09-12T07:40:47.145Z,99.90
2022-09-12T07:43:13.258Z,99.90
2022-09-12T09:23:28.591Z,99.90
2022-09-12T09:25:54.610Z,99.90
2022-09-12T09:28:20.546Z,99.90
2022-09-12T09:30:46.568Z,99.90
2022-09-12T09:33:12.545Z,99.90
2022-09-12T09:35:39.262Z,99.90
2022-09-12T09:38:05.239Z,99.90
2022-09-12T09:40:31.248Z,99.90
2022-09-12T09:42:57.209Z,99.90
2022-09-12T09:45:23.807Z,99.90
2022-09-12T09:47:49.774Z,99.90
2022-09-12T09:50:15.725Z,99.90
2022-09-12T09:52:41.661Z,99.90
2022-09-12T09:55:07.627Z,99.90
2022-09-12T09:57:33.565Z,99.90
2022-09-12T09:59:59.555Z,99.90
2022-09-12T10:02:26.338Z,99.90
2022-09-12T10:04:52.278Z,99.90
2022-09-12T10:07:18.240Z,99.90
2022-09-12T10:09:44.799Z,99.90
2022-09-12T10:12:10.820Z,99.90
2022-09-12T10:14:36.793Z,99.90
2022-09-12T10:17:03.519Z,99.90
2022-09-12T10:19:29.508Z,99.90
2022-09-12T10:21:55.458Z,99.90
2022-09-12T10:24:21.411Z,99.90
2022-09-12T10:26:47.475Z,99.90
2022-09-12T10:29:13.474Z,99.90
2022-09-12T10:31:39.408Z,99.90
2022-09-12T10:34:05.383Z,99.90
2022-09-12T10:36:32.178Z,99.90
2022-09-12T10:38:58.109Z,99.90
2022-09-12T10:41:24.974Z,99.90
2022-09-12T10:43:50.912Z,99.90
2022-09-12T10:46:16.918Z,99.90
2022-09-12T10:48:42.890Z,99.90
2022-09-12T10:51:09.065Z,99.90
2022-09-12T10:53:35.798Z,99.90
2022-09-12T10:56:01.789Z,99.90
2022-09-12T10:58:27.760Z,99.90
2022-09-12T11:00:54.480Z,99.90
2022-09-12T11:03:20.508Z,98.50
2022-09-12T11:05:46.455Z,99.60
2022-09-12T11:08:13.244Z,99.90
2022-09-12T11:10:43.772Z,98.40
2022-09-12T11:13:10.861Z,99.10
2022-09-12T11:15:36.871Z,99.30
2022-09-12T11:18:02.852Z,99.90
2022-09-12T11:20:28.916Z,99.30
2022-09-12T11:22:54.866Z,96.70
2022-09-12T11:25:21.027Z,96.90
2022-09-12T11:27:47.087Z,95.90
2022-09-12T11:30:13.130Z,93.10
2022-09-12T11:32:39.175Z,95.70
2022-09-12T11:35:05.183Z,95.60
2022-09-12T11:37:31.929Z,95.00
2022-09-12T11:39:57.903Z,93.70
2022-09-12T11:42:23.912Z,93.90
2022-09-12T11:44:50.746Z,94.40
2022-09-12T11:47:16.723Z,93.10
2022-09-12T11:49:42.791Z,95.40
2022-09-12T11:52:08.823Z,94.10
2022-09-12T11:54:35.441Z,92.90
2022-09-12T11:57:01.489Z,92.70
2022-09-12T11:59:27.422Z,92.40
2022-09-12T12:01:53.856Z,92.90
2022-09-12T12:04:20.149Z,92.90
2022-09-12T12:06:46.577Z,92.40
2022-09-12T12:09:13.010Z,90.60
2022-09-12T12:11:40.045Z,91.00
2022-09-12T12:16:47.830Z,91.00
2022-09-12T14:29:13.247Z,90.90
2022-09-12T14:31:39.860Z,90.60
2022-09-12T14:34:06.811Z,91.00
2022-09-12T14:36:33.079Z,91.10
2022-09-12T14:38:59.056Z,90.70
2022-09-12T14:41:25.010Z,90.50
2022-09-12T14:43:51.601Z,87.20
2022-09-12T14:46:17.561Z,90.40
2022-09-12T14:48:44.188Z,90.40
2022-09-12T14:51:10.276Z,89.60
2022-09-12T14:53:36.290Z,91.20
2022-09-12T14:56:03.233Z,90.70
2022-09-12T14:58:29.158Z,90.80
2022-09-12T15:00:55.113Z,90.10
2022-09-12T15:03:21.091Z,89.70
2022-09-12T15:05:47.019Z,90.40
2022-09-12T15:08:13.915Z,90.10
2022-09-12T15:10:41.889Z,91.30
2022-09-12T15:13:07.838Z,90.00
2022-09-12T15:15:33.849Z,90.70
2022-09-12T15:18:02.378Z,91.60
2022-09-12T15:20:31.821Z,90.00
2022-09-12T15:22:57.761Z,89.80
2022-09-12T15:25:23.710Z,90.90
2022-09-12T15:27:50.639Z,89.90
2022-09-12T15:30:16.607Z,91.20
2022-09-12T15:32:42.614Z,91.40
2022-09-12T15:35:09.275Z,90.80
2022-09-12T15:37:35.555Z,91.20
2022-09-12T15:40:01.679Z,92.00
2022-09-12T15:42:28.493Z,92.00
2022-09-12T15:44:54.423Z,92.60
2022-09-12T15:47:21.192Z,92.30
2022-09-12T15:49:48.089Z,91.50
2022-09-12T15:52:14.036Z,91.00
2022-09-12T15:54:40.002Z,91.20
2022-09-12T15:57:06.654Z,91.10
2022-09-12T15:59:32.877Z,91.30
2022-09-12T16:01:58.876Z,91.20
2022-09-12T16:04:24.846Z,91.10
2022-09-12T16:06:50.854Z,90.60
2022-09-12T16:09:16.950Z,91.20
2022-09-12T16:11:43.798Z,91.80
2022-09-12T16:14:09.806Z,91.40
2022-09-12T16:16:36.267Z,91.80
2022-09-12T16:19:02.204Z,92.60
2022-09-12T16:21:28.186Z,93.30
2022-09-12T16:23:54.156Z,93.40
2022-09-12T16:26:20.169Z,92.50
2022-09-12T16:28:46.578Z,93.20
2022-09-12T16:31:13.613Z,92.50
2022-09-12T16:33:41.623Z,92.70
2022-09-12T16:36:07.570Z,93.20
2022-09-12T16:38:34.404Z,93.20
2022-09-12T16:41:00.370Z,92.80
2022-09-12T16:43:26.299Z,93.20
2022-09-12T16:45:52.309Z,93.70
2022-09-12T16:48:18.703Z,94.10
2022-09-12T16:50:45.528Z,94.10
2022-09-12T16:53:11.509Z,94.40
2022-09-12T16:55:37.448Z,94.90
2022-09-12T16:58:04.310Z,94.60
2022-09-12T17:00:30.292Z,94.80
2022-09-12T17:02:56.301Z,94.70
2022-09-12T17:05:22.281Z,94.60
2022-09-12T17:07:48.575Z,95.00
2022-09-12T17:10:14.835Z,95.50
2022-09-12T17:12:42.389Z,95.30
2022-09-12T17:15:08.666Z,95.90
2022-09-12T17:17:34.966Z,95.40
2022-09-12T17:20:01.133Z,96.30
2022-09-12T17:22:27.366Z,95.20
2022-09-12T19:14:08.662Z,99.90
2022-09-12T19:16:34.586Z,99.90
2022-09-12T19:19:01.300Z,99.90
2022-09-12T19:21:27.322Z,99.90
2022-09-12T19:23:53.296Z,99.90
2022-09-12T19:26:19.821Z,99.90
2022-09-12T19:28:45.844Z,99.90
2022-09-12T19:31:11.817Z,99.90
2022-09-12T19:33:37.826Z,99.90
2022-09-12T19:36:03.809Z,99.90
2022-09-12T19:38:30.264Z,99.90
2022-09-12T19:40:56.434Z,99.90
2022-09-12T19:43:22.375Z,99.90
2022-09-12T19:45:49.007Z,99.90
2022-09-12T19:48:15.022Z,99.90
2022-09-12T19:50:40.971Z,99.90
2022-09-12T19:53:06.912Z,99.90
2022-09-12T19:55:33.543Z,99.90
2022-09-12T19:57:59.489Z,99.90
2022-09-12T20:00:25.466Z,99.90
2022-09-12T20:02:52.325Z,99.90
2022-09-12T20:05:18.318Z,99.90
2022-09-12T20:07:44.255Z,99.90
2022-09-12T20:10:11.029Z,99.90
2022-09-12T20:12:36.985Z,99.90
2022-09-12T20:15:02.949Z,99.90
2022-09-12T20:17:29.634Z,99.90
2022-09-12T20:19:55.561Z,99.90
2022-09-12T20:22:21.515Z,99.90
2022-09-12T20:24:48.240Z,99.90
2022-09-12T20:27:14.385Z,99.90
2022-09-12T20:29:40.327Z,99.90
2022-09-12T20:32:06.274Z,99.90
2022-09-12T20:34:32.242Z,99.90
2022-09-12T20:36:58.834Z,99.90
2022-09-12T20:39:24.794Z,99.90
2022-09-12T20:41:51.504Z,99.90
2022-09-12T20:44:17.487Z,99.90
2022-09-12T20:46:43.484Z,99.90
2022-09-12T20:49:09.526Z,99.90
2022-09-12T20:51:35.499Z,99.90
2022-09-12T20:54:02.107Z,99.90
2022-09-12T20:56:28.134Z,99.90
2022-09-12T20:58:54.124Z,99.90
2022-09-12T21:01:20.304Z,99.90
2022-09-12T21:03:46.393Z,99.90
2022-09-12T21:06:12.409Z,99.90
2022-09-12T21:08:39.120Z,99.90
2022-09-12T21:11:05.092Z,99.90
2022-09-12T21:13:31.080Z,99.90
2022-09-12T21:15:57.803Z,99.90
2022-09-12T21:18:23.964Z,99.90
2022-09-12T21:20:49.925Z,99.90
2022-09-12T21:23:15.899Z,99.90
2022-09-12T21:25:51.922Z,99.90
2022-09-12T21:28:18.293Z,99.90
2022-09-12T21:30:44.252Z,99.90
2022-09-12T21:33:10.897Z,99.90
2022-09-12T21:35:36.891Z,99.90
2022-09-12T21:38:02.819Z,99.90
2022-09-12T21:40:29.519Z,99.90
2022-09-12T21:42:55.516Z,99.90
2022-09-12T21:45:21.459Z,99.90
2022-09-12T21:47:47.416Z,99.90
2022-09-12T21:50:13.664Z,99.90
2022-09-12T21:52:41.356Z,99.90
2022-09-12T21:55:07.571Z,99.90
2022-09-12T21:57:33.844Z,99.90
2022-09-12T22:00:00.092Z,99.90
2022-09-12T22:02:26.465Z,99.90
2022-09-12T22:04:52.728Z,99.90
2022-09-12T22:07:19.898Z,99.90
